NKS125 KSFO-KLAS
Flight info
| Callsign | NKS125 |
|---|---|
| Flight time | N/A |
| Altitude | 33000 |
| Route | WESLA5 NTELL Q174 FLCHR COKTL4 |
| Aircraft | A320/M-SDE3FGHIRWY/LB1 |
Departure
| Time | N/A |
|---|---|
| Airport | San Francisco International Airport (KSFO) |
Arrival
| Time | 2026-05-04 15:30 |
|---|---|
| Airport | Harry Reid International Airport (KLAS) |
| Time | Latitude | Longitude | Altitude | Speed | Heading |
|---|---|---|---|---|---|
| 2026-05-04 14:44 | 37.22239 | -118.89168 | 32909 ft | 563 kts | 71° |
| 2026-05-04 14:44 | 37.25134 | -118.80046 | 32901 ft | 562 kts | 71° |
| 2026-05-04 14:45 | 37.27621 | -118.70786 | 32889 ft | 556 kts | 83° |
| 2026-05-04 14:45 | 37.28498 | -118.61209 | 32876 ft | 551 kts | 89° |
| 2026-05-04 14:46 | 37.29112 | -118.53239 | 32898 ft | 551 kts | 89° |
| 2026-05-04 14:46 | 37.29850 | -118.43654 | 32901 ft | 551 kts | 89° |
| 2026-05-04 14:47 | 37.30584 | -118.34007 | 32908 ft | 551 kts | 89° |
| 2026-05-04 14:47 | 37.31293 | -118.24479 | 32911 ft | 551 kts | 89° |
| 2026-05-04 14:48 | 37.32001 | -118.14897 | 32883 ft | 551 kts | 89° |
| 2026-05-04 14:48 | 37.32701 | -118.05307 | 32857 ft | 550 kts | 90° |
| 2026-05-04 14:49 | 37.33382 | -117.95741 | 32828 ft | 549 kts | 90° |
| 2026-05-04 14:49 | 37.34059 | -117.86189 | 32814 ft | 549 kts | 90° |
| 2026-05-04 14:50 | 37.34733 | -117.76630 | 32817 ft | 549 kts | 90° |
| 2026-05-04 14:50 | 37.35396 | -117.67083 | 32816 ft | 548 kts | 90° |
| 2026-05-04 14:51 | 37.36051 | -117.57534 | 32813 ft | 548 kts | 90° |
| 2026-05-04 14:51 | 37.36703 | -117.47993 | 32819 ft | 548 kts | 90° |
| 2026-05-04 14:52 | 37.37346 | -117.38444 | 32820 ft | 548 kts | 90° |
| 2026-05-04 14:52 | 37.37398 | -117.33690 | 32817 ft | 539 kts | 101° |
| 2026-05-04 14:52 | 37.36794 | -117.29100 | 32815 ft | 528 kts | 112° |
| 2026-05-04 14:53 | 37.35582 | -117.24797 | 32811 ft | 516 kts | 123° |
| 2026-05-04 14:53 | 37.33849 | -117.20917 | 32809 ft | 503 kts | 133° |
| 2026-05-04 14:53 | 37.31688 | -117.17535 | 32806 ft | 492 kts | 141° |
| 2026-05-04 14:53 | 37.29386 | -117.14351 | 32803 ft | 493 kts | 141° |
| 2026-05-04 14:54 | 37.24781 | -117.07951 | 32799 ft | 494 kts | 141° |
| 2026-05-04 14:54 | 37.20172 | -117.01541 | 32802 ft | 495 kts | 141° |
| 2026-05-04 14:55 | 37.15547 | -116.95125 | 32801 ft | 496 kts | 141° |
| 2026-05-04 14:55 | 37.10895 | -116.88739 | 32794 ft | 492 kts | 145° |
| 2026-05-04 14:56 | 37.08315 | -116.86029 | 32797 ft | 478 kts | 155° |
| 2026-05-04 14:56 | 37.05615 | -116.83708 | 32794 ft | 477 kts | 156° |
| 2026-05-04 14:56 | 37.00233 | -116.79073 | 32829 ft | 455 kts | 156° |
| 2026-05-04 14:57 | 36.97669 | -116.76848 | 32620 ft | 443 kts | 156° |
| 2026-05-04 14:57 | 36.95161 | -116.74682 | 32358 ft | 433 kts | 157° |
| 2026-05-04 14:57 | 36.92700 | -116.72567 | 32107 ft | 424 kts | 157° |
| 2026-05-04 14:57 | 36.90294 | -116.70507 | 31844 ft | 415 kts | 158° |
| 2026-05-04 14:58 | 36.87925 | -116.68486 | 31594 ft | 410 kts | 158° |
| 2026-05-04 14:58 | 36.85575 | -116.66488 | 31345 ft | 407 kts | 158° |
| 2026-05-04 14:58 | 36.83235 | -116.64505 | 31095 ft | 406 kts | 159° |
| 2026-05-04 14:58 | 36.80910 | -116.62530 | 30852 ft | 403 kts | 159° |
| 2026-05-04 14:59 | 36.78601 | -116.60565 | 30613 ft | 401 kts | 159° |
| 2026-05-04 14:59 | 36.76300 | -116.58603 | 30367 ft | 399 kts | 159° |
| 2026-05-04 14:59 | 36.71751 | -116.54727 | 29859 ft | 392 kts | 159° |
| 2026-05-04 15:00 | 36.69505 | -116.52811 | 29419 ft | 389 kts | 159° |
| 2026-05-04 15:00 | 36.67279 | -116.50916 | 29020 ft | 385 kts | 159° |
| 2026-05-04 15:00 | 36.65120 | -116.48915 | 28619 ft | 393 kts | 150° |
| 2026-05-04 15:01 | 36.61354 | -116.43797 | 27779 ft | 401 kts | 143° |
| 2026-05-04 15:01 | 36.59519 | -116.41191 | 27346 ft | 399 kts | 143° |
| 2026-05-04 15:01 | 36.57693 | -116.38605 | 26926 ft | 398 kts | 143° |
| 2026-05-04 15:01 | 36.55866 | -116.36020 | 26494 ft | 396 kts | 142° |
| 2026-05-04 15:02 | 36.54050 | -116.33457 | 26066 ft | 395 kts | 142° |
| 2026-05-04 15:02 | 36.52234 | -116.30899 | 25626 ft | 393 kts | 142° |
| 2026-05-04 15:02 | 36.50422 | -116.28353 | 25184 ft | 393 kts | 142° |
| 2026-05-04 15:02 | 36.48616 | -116.25817 | 24742 ft | 392 kts | 141° |
| 2026-05-04 15:03 | 36.46809 | -116.23278 | 24302 ft | 391 kts | 141° |
| 2026-05-04 15:03 | 36.45011 | -116.20746 | 23867 ft | 390 kts | 140° |
| 2026-05-04 15:03 | 36.43218 | -116.18220 | 23414 ft | 390 kts | 140° |
| 2026-05-04 15:03 | 36.41422 | -116.15694 | 22922 ft | 389 kts | 140° |
| 2026-05-04 15:04 | 36.39636 | -116.13183 | 22479 ft | 386 kts | 140° |
| 2026-05-04 15:04 | 36.37867 | -116.10700 | 22032 ft | 383 kts | 139° |
| 2026-05-04 15:04 | 36.36104 | -116.08229 | 21602 ft | 380 kts | 139° |
| 2026-05-04 15:04 | 36.34380 | -116.05813 | 21169 ft | 376 kts | 139° |
| 2026-05-04 15:05 | 36.32657 | -116.03397 | 20743 ft | 373 kts | 139° |
| 2026-05-04 15:05 | 36.30937 | -116.00989 | 20307 ft | 370 kts | 139° |
| 2026-05-04 15:05 | 36.29229 | -115.98604 | 19881 ft | 368 kts | 139° |
| 2026-05-04 15:05 | 36.27534 | -115.96244 | 19453 ft | 366 kts | 139° |
| 2026-05-04 15:06 | 36.25845 | -115.93892 | 19028 ft | 364 kts | 139° |
| 2026-05-04 15:06 | 36.24191 | -115.91529 | 18766 ft | 359 kts | 136° |
| 2026-05-04 15:06 | 36.22653 | -115.89161 | 18631 ft | 349 kts | 135° |
| 2026-05-04 15:07 | 36.19818 | -115.84574 | 17957 ft | 342 kts | 134° |
| 2026-05-04 15:07 | 36.18379 | -115.82237 | 17603 ft | 339 kts | 134° |
| 2026-05-04 15:07 | 36.16944 | -115.79935 | 17242 ft | 337 kts | 134° |
| 2026-05-04 15:07 | 36.15509 | -115.77656 | 16878 ft | 334 kts | 134° |
| 2026-05-04 15:08 | 36.14133 | -115.75346 | 16506 ft | 335 kts | 126° |
| 2026-05-04 15:08 | 36.13146 | -115.72717 | 16169 ft | 339 kts | 115° |
| 2026-05-04 15:08 | 36.12322 | -115.69999 | 15839 ft | 336 kts | 115° |
| 2026-05-04 15:08 | 36.11496 | -115.67304 | 15516 ft | 334 kts | 115° |
| 2026-05-04 15:09 | 36.10671 | -115.64631 | 15222 ft | 330 kts | 115° |
| 2026-05-04 15:09 | 36.10396 | -115.63739 | 15089 ft | 330 kts | 115° |
| 2026-05-04 15:10 | 36.09585 | -115.60852 | 14836 ft | 319 kts | 113° |
| 2026-05-04 15:10 | 36.09060 | -115.59078 | 14343 ft | 320 kts | 114° |
| 2026-05-04 15:10 | 36.07447 | -115.53985 | 13557 ft | 316 kts | 115° |
| 2026-05-04 15:11 | 36.06647 | -115.51494 | 13208 ft | 314 kts | 114° |
| 2026-05-04 15:11 | 36.05848 | -115.48984 | 12826 ft | 314 kts | 114° |
| 2026-05-04 15:11 | 36.05061 | -115.46488 | 12492 ft | 311 kts | 114° |
| 2026-05-04 15:11 | 36.04286 | -115.44005 | 12182 ft | 308 kts | 114° |
| 2026-05-04 15:12 | 36.03520 | -115.41538 | 11842 ft | 307 kts | 114° |
| 2026-05-04 15:12 | 36.02761 | -115.39085 | 11539 ft | 304 kts | 114° |
| 2026-05-04 15:12 | 36.02010 | -115.36643 | 11220 ft | 302 kts | 112° |
| 2026-05-04 15:12 | 36.01556 | -115.34104 | 10882 ft | 305 kts | 97° |
| 2026-05-04 15:13 | 36.01434 | -115.31499 | 10572 ft | 303 kts | 96° |
| 2026-05-04 15:13 | 36.01312 | -115.28912 | 10256 ft | 301 kts | 96° |
| 2026-05-04 15:13 | 36.01187 | -115.26348 | 9873 ft | 297 kts | 96° |
| 2026-05-04 15:13 | 36.01062 | -115.23815 | 9246 ft | 294 kts | 96° |
| 2026-05-04 15:14 | 36.00936 | -115.21302 | 8619 ft | 292 kts | 96° |
| 2026-05-04 15:14 | 36.00811 | -115.18821 | 8010 ft | 289 kts | 96° |
| 2026-05-04 15:14 | 36.00685 | -115.16343 | 7405 ft | 286 kts | 96° |
| 2026-05-04 15:14 | 36.00562 | -115.13908 | 7208 ft | 281 kts | 96° |
| 2026-05-04 15:15 | 36.00443 | -115.11537 | 7074 ft | 272 kts | 97° |
| 2026-05-04 15:15 | 36.00328 | -115.09241 | 6886 ft | 267 kts | 97° |
| 2026-05-04 15:15 | 36.00213 | -115.06966 | 6636 ft | 263 kts | 96° |
| 2026-05-04 15:16 | 36.00002 | -115.02662 | 6144 ft | 242 kts | 97° |
| 2026-05-04 15:16 | 35.99906 | -115.00604 | 5919 ft | 237 kts | 97° |
| 2026-05-04 15:16 | 36.00476 | -114.96774 | 5634 ft | 229 kts | 57° |
| 2026-05-04 15:17 | 36.01641 | -114.95484 | 5496 ft | 226 kts | 29° |
| 2026-05-04 15:17 | 36.04601 | -114.95048 | 5163 ft | 207 kts | 357° |
| 2026-05-04 15:17 | 36.05968 | -114.95393 | 4932 ft | 198 kts | 330° |
| 2026-05-04 15:18 | 36.06967 | -114.96481 | 4623 ft | 191 kts | 297° |
| 2026-05-04 15:18 | 36.07362 | -114.97990 | 4378 ft | 182 kts | 268° |
| 2026-05-04 15:18 | 36.07367 | -114.99532 | 4151 ft | 178 kts | 266° |
| 2026-05-04 15:19 | 36.07366 | -115.02540 | 3689 ft | 171 kts | 266° |
| 2026-05-04 15:19 | 36.07366 | -115.03994 | 3490 ft | 166 kts | 266° |
| 2026-05-04 15:19 | 36.07367 | -115.06613 | 3092 ft | 147 kts | 265° |
| 2026-05-04 15:20 | 36.07367 | -115.07850 | 2888 ft | 145 kts | 264° |
| 2026-05-04 15:20 | 36.07368 | -115.09093 | 2708 ft | 144 kts | 265° |
| 2026-05-04 15:20 | 36.07366 | -115.10310 | 2512 ft | 140 kts | 263° |
| 2026-05-04 15:20 | 36.07382 | -115.11514 | 2276 ft | 141 kts | 264° |
| 2026-05-04 15:21 | 36.07366 | -115.12733 | 2114 ft | 142 kts | 261° |
| 2026-05-04 15:21 | 36.07356 | -115.13893 | 2113 ft | 126 kts | 258° |
| 2026-05-04 15:21 | 36.07428 | -115.16141 | 3318 ft | 134 kts | 265° |
| 2026-05-04 15:22 | 36.07417 | -115.17400 | 3674 ft | 166 kts | 264° |
| 2026-05-04 15:22 | 36.07354 | -115.18952 | 3824 ft | 193 kts | 264° |
| 2026-05-04 15:22 | 36.05758 | -115.21592 | 4621 ft | 214 kts | 197° |
| 2026-05-04 15:23 | 36.04265 | -115.21577 | 5298 ft | 218 kts | 161° |
| 2026-05-04 15:23 | 36.03019 | -115.20558 | 5875 ft | 215 kts | 135° |
| 2026-05-04 15:23 | 36.02363 | -115.18962 | 5987 ft | 212 kts | 103° |
| 2026-05-04 15:23 | 36.02235 | -115.17152 | 6033 ft | 212 kts | 95° |
| 2026-05-04 15:24 | 36.02212 | -115.13546 | 5548 ft | 216 kts | 94° |
| 2026-05-04 15:24 | 36.02180 | -115.09773 | 4888 ft | 221 kts | 94° |
| 2026-05-04 15:25 | 36.02162 | -115.07883 | 4651 ft | 216 kts | 93° |
| 2026-05-04 15:25 | 36.02146 | -115.06065 | 4524 ft | 207 kts | 94° |
| 2026-05-04 15:25 | 36.02145 | -115.04311 | 4391 ft | 201 kts | 93° |
| 2026-05-04 15:26 | 36.02783 | -115.01157 | 4149 ft | 188 kts | 49° |
| 2026-05-04 15:26 | 36.03847 | -115.00286 | 3937 ft | 185 kts | 15° |
| 2026-05-04 15:26 | 36.06201 | -115.00836 | 3786 ft | 169 kts | 318° |
| 2026-05-04 15:27 | 36.06963 | -115.01891 | 3716 ft | 160 kts | 296° |
| 2026-05-04 15:27 | 36.07366 | -115.04387 | 3402 ft | 145 kts | 266° |
| 2026-05-04 15:28 | 36.07366 | -115.06841 | 3053 ft | 144 kts | 265° |
| 2026-05-04 15:28 | 36.07366 | -115.07678 | 2906 ft | 144 kts | 264° |
| 2026-05-04 15:28 | 36.07369 | -115.10537 | 2440 ft | 139 kts | 263° |
| 2026-05-04 15:29 | 36.07379 | -115.11735 | 2237 ft | 140 kts | 263° |
| 2026-05-04 15:30 | 36.07364 | -115.15019 | 2123 ft | 36 kts | 271° |
| 2026-05-04 15:30 | 36.07492 | -115.15558 | 2137 ft | 10 kts | 300° |
| 2026-05-04 15:31 | 36.07603 | -115.15702 | 2137 ft | 13 kts | 314° |
| 2026-05-04 15:31 | 36.07668 | -115.15784 | 2138 ft | 14 kts | 314° |
| 2026-05-04 15:32 | 36.07804 | -115.15640 | 2137 ft | 16 kts | 88° |
| 2026-05-04 15:32 | 36.07803 | -115.15325 | 2129 ft | 18 kts | 90° |
| 2026-05-04 15:33 | 36.07790 | -115.14913 | 2114 ft | 29 kts | 95° |
| 2026-05-04 15:34 | 36.07755 | -115.14187 | 2091 ft | 16 kts | 77° |
| 2026-05-04 15:34 | 36.07864 | -115.14162 | 2086 ft | 19 kts | 356° |
| 2026-05-04 15:34 | 36.07992 | -115.14045 | 2078 ft | 0 kts | 60° |